Time;durP1;ratioP1;P1;durP2;ratioP2;P2;SDS_P1;SDS_P2;PMS_P1;PMS_P2;Temp;Humidity;BMP_temperature;BMP_pressure;BME280_temperature;BME280_humidity;BME280_pressure;Samples;Min_cycle;Max_cycle;Signal;HPM_P1;HPM_P2
2023/01/25 00:00:11;;;;;;;12.00;7.07;;;;;;;0.21;97.94;101954.72;1442347;89;21824;-81
2023/01/25 00:02:37;;;;;;;8.93;5.50;;;;;;;0.21;98.05;101961.22;1465010;87;22626;-81
2023/01/25 00:05:04;;;;;;;8.37;5.43;;;;;;;0.14;98.29;101959.67;1463288;89;21588;-81
2023/01/25 00:07:30;;;;;;;10.97;7.10;;;;;;;0.16;98.12;101960.49;1466447;88;21791;-82
2023/01/25 00:09:56;;;;;;;10.00;5.67;;;;;;;0.12;98.26;101960.19;1471484;89;21543;-83
2023/01/25 00:12:23;;;;;;;10.97;6.37;;;;;;;0.11;98.39;101960.61;1465376;89;21886;-81
2023/01/25 00:14:49;;;;;;;8.90;6.10;;;;;;;0.11;98.25;101962.37;1466930;89;21628;-80
2023/01/25 00:17:15;;;;;;;10.93;6.83;;;;;;;0.10;98.21;101960.22;1466687;89;21816;-80
2023/01/25 00:19:41;;;;;;;7.80;5.93;;;;;;;0.11;98.10;101961.91;1468178;88;21566;-80
2023/01/25 00:22:07;;;;;;;9.53;6.10;;;;;;;0.05;98.35;101965.14;1464565;89;21634;-81
2023/01/25 00:24:34;;;;;;;12.80;5.67;;;;;;;0.05;98.35;101964.69;1469574;89;21587;-81
2023/01/25 00:27:02;;;;;;;10.37;6.87;;;;;;;0.04;98.14;101964.30;1467660;89;21714;-79
2023/01/25 00:29:28;;;;;;;8.73;5.43;;;;;;;0.09;97.99;101968.09;1469495;89;21602;-80
2023/01/25 00:32:03;;;;;;;11.50;6.13;;;;;;;0.05;98.02;101970.35;1461693;89;21544;-80
2023/01/25 00:34:48;;;;;;;9.10;5.73;;;;;;;0.05;97.90;101972.95;1468424;87;21713;-80
2023/01/25 00:37:31;;;;;;;10.00;5.97;;;;;;;0.03;98.30;101981.25;1462605;89;21620;-79
2023/01/25 00:39:57;;;;;;;8.33;5.73;;;;;;;-0.02;98.33;101973.58;1475482;89;22724;-80
2023/01/25 00:42:23;;;;;;;9.77;6.87;;;;;;;-0.09;98.79;101991.09;1465563;88;21618;-82
2023/01/25 00:44:50;;;;;;;11.07;6.33;;;;;;;-0.08;98.93;101994.12;1463073;87;21733;-80
2023/01/25 00:47:16;;;;;;;10.50;6.13;;;;;;;-0.11;99.12;101989.00;1472010;89;21718;-79
2023/01/25 00:49:44;;;;;;;11.23;6.43;;;;;;;-0.14;99.22;101988.23;1470786;89;21545;-79
2023/01/25 00:52:11;;;;;;;8.77;5.70;;;;;;;-0.13;98.99;101986.88;1466681;88;21616;-81
2023/01/25 00:54:38;;;;;;;8.57;5.20;;;;;;;-0.11;99.05;101993.36;1459830;88;21740;-81
2023/01/25 00:57:08;;;;;;;10.43;5.73;;;;;;;-0.15;99.12;101991.71;1464795;88;22498;-81
2023/01/25 00:59:34;;;;;;;9.43;6.03;;;;;;;-0.15;99.10;101991.71;1469794;89;21616;-80
2023/01/25 01:02:02;;;;;;;9.10;5.90;;;;;;;-0.16;99.01;101984.36;1474895;88;21610;-80
2023/01/25 01:04:28;;;;;;;9.30;6.47;;;;;;;-0.17;99.07;101988.28;1469675;88;21923;-81
2023/01/25 01:06:57;;;;;;;8.87;5.73;;;;;;;-0.19;99.27;101990.09;1459484;88;21684;-80
2023/01/25 01:09:24;;;;;;;9.40;6.47;;;;;;;-0.19;99.16;101986.20;1462517;89;21635;-82
2023/01/25 01:11:50;;;;;;;11.13;6.37;;;;;;;-0.20;99.10;101985.77;1465317;88;21830;-81
2023/01/25 01:14:17;;;;;;;10.53;6.55;;;;;;;-0.24;99.34;101983.25;1476805;88;21586;-82
2023/01/25 01:16:43;;;;;;;10.20;6.13;;;;;;;-0.26;99.54;101977.25;1464740;88;22268;-80
2023/01/25 01:19:10;;;;;;;10.90;6.10;;;;;;;-0.26;99.65;101981.58;1463482;89;22202;-81
2023/01/25 01:21:36;;;;;;;8.53;4.93;;;;;;;-0.25;99.40;101980.70;1462162;89;21778;-81
2023/01/25 01:24:03;;;;;;;11.47;4.97;;;;;;;-0.26;99.43;101977.67;1458947;89;22847;-81
2023/01/25 01:26:30;;;;;;;10.10;5.83;;;;;;;-0.29;99.49;101977.34;1466921;88;21670;-80
2023/01/25 01:28:58;;;;;;;7.90;4.80;;;;;;;-0.28;99.36;101976.43;1461936;89;22471;-80
2023/01/25 01:31:24;;;;;;;7.00;4.80;;;;;;;-0.30;99.44;101969.55;1469931;88;21433;-80
2023/01/25 01:33:53;;;;;;;7.65;5.15;;;;;;;-0.30;99.24;101969.55;1457652;88;21685;-80
2023/01/25 01:36:23;;;;;;;7.40;4.50;;;;;;;-0.26;99.01;101964.66;1469798;88;21343;-80
2023/01/25 01:38:50;;;;;;;7.28;4.60;;;;;;;-0.24;98.72;101965.03;1466746;89;22394;-80
2023/01/25 01:41:17;;;;;;;10.33;5.53;;;;;;;-0.28;98.99;101961.27;1470626;89;21655;-80
2023/01/25 01:43:44;;;;;;;7.10;4.70;;;;;;;-0.29;99.03;101964.75;1465351;88;21556;-80
2023/01/25 01:46:31;;;;;;;7.00;4.50;;;;;;;-0.33;99.30;101962.68;1465911;89;21522;-79
2023/01/25 01:49:11;;;;;;;6.30;4.83;;;;;;;-0.30;98.96;101962.59;1467933;89;21801;-79
2023/01/25 01:51:58;;;;;;;7.62;4.58;;;;;;;-0.32;99.15;101955.72;1467351;88;22139;-79
2023/01/25 01:54:32;;;;;;;9.00;5.63;;;;;;;-0.32;99.17;101953.13;1462264;88;21388;-78
2023/01/25 01:57:11;;;;;;;4.78;3.40;;;;;;;-0.34;99.33;101953.18;1466626;89;21906;-79
2023/01/25 01:59:46;;;;;;;9.33;5.13;;;;;;;-0.36;99.20;101954.95;1475986;88;21669;-80
2023/01/25 02:02:14;;;;;;;8.10;5.70;;;;;;;-0.36;99.26;101955.41;1467560;88;22216;-80
2023/01/25 02:04:43;;;;;;;7.07;5.03;;;;;;;-0.37;99.16;101957.62;1457384;88;22204;-81
2023/01/25 02:07:30;;;;;;;8.93;5.50;;;;;;;-0.32;98.96;101959.63;1455528;89;22374;-81
2023/01/25 02:09:59;;;;;;;10.43;5.95;;;;;;;-0.37;99.16;101958.47;1468997;88;22317;-80
2023/01/25 02:12:27;;;;;;;11.63;5.70;;;;;;;-0.35;98.93;101959.71;1465728;88;22261;-81
2023/01/25 02:14:54;;;;;;;9.73;5.90;;;;;;;-0.35;98.80;101954.50;1469981;88;22118;-80
2023/01/25 02:17:25;;;;;;;9.00;5.20;;;;;;;-0.35;98.48;101943.65;1469576;89;22305;-81
2023/01/25 02:20:18;;;;;;;6.67;4.30;;;;;;;-0.39;98.89;101944.64;1475146;88;22205;-80
2023/01/25 02:23:00;;;;;;;6.47;4.50;;;;;;;-0.39;98.68;101942.48;1474928;88;22334;-80
2023/01/25 02:25:28;;;;;;;7.75;4.83;;;;;;;-0.38;98.67;101937.67;1462504;88;21463;-79
2023/01/25 02:28:09;;;;;;;5.53;4.33;;;;;;;-0.36;98.54;101939.80;1467957;89;21670;-78
2023/01/25 02:30:35;;;;;;;6.35;4.40;;;;;;;-0.37;98.56;101949.81;1470228;88;21671;-78
2023/01/25 02:33:02;;;;;;;7.03;4.43;;;;;;;-0.41;98.67;101945.11;1468632;88;21404;-79
2023/01/25 02:35:46;;;;;;;8.73;4.00;;;;;;;-0.35;98.35;101948.00;1464574;88;22524;-79
2023/01/25 02:38:15;;;;;;;7.10;4.80;;;;;;;-0.38;98.55;101945.48;1460271;88;22220;-79
2023/01/25 02:40:56;;;;;;;9.90;4.13;;;;;;;-0.40;98.50;101942.06;1462888;89;21517;-80
2023/01/25 02:43:25;;;;;;;8.33;3.83;;;;;;;-0.42;98.67;101949.07;1466432;89;22282;-80
2023/01/25 02:46:09;;;;;;;6.83;4.37;;;;;;;-0.47;98.73;101937.47;1456859;88;21485;-80
2023/01/25 02:48:34;;;;;;;5.87;4.17;;;;;;;-0.42;98.78;101950.38;1467238;89;21441;-80
2023/01/25 02:51:00;;;;;;;7.42;4.60;;;;;;;-0.40;98.59;101940.76;1464228;89;22415;-80
2023/01/25 02:53:26;;;;;;;5.77;4.70;;;;;;;-0.41;98.59;101949.02;1470323;88;22336;-79
2023/01/25 02:55:53;;;;;;;5.53;4.55;;;;;;;-0.41;98.56;101950.77;1458117;88;22080;-82
2023/01/25 02:58:19;;;;;;;7.30;4.37;;;;;;;-0.41;98.20;101946.41;1473537;89;21366;-82
2023/01/25 03:00:45;;;;;;;6.63;4.73;;;;;;;-0.39;98.18;101952.89;1458322;88;22063;-82
2023/01/25 03:03:11;;;;;;;6.87;3.97;;;;;;;-0.40;98.02;101949.86;1473724;88;21697;-82
2023/01/25 03:05:37;;;;;;;6.80;4.17;;;;;;;-0.42;97.90;101947.32;1465287;88;21835;-81
2023/01/25 03:08:04;;;;;;;7.55;4.70;;;;;;;-0.47;98.10;101943.52;1458390;89;21359;-81
2023/01/25 03:10:30;;;;;;;10.60;5.07;;;;;;;-0.47;97.89;101938.33;1466622;88;21543;-81
2023/01/25 03:12:56;;;;;;;6.12;4.15;;;;;;;-0.48;97.86;101940.53;1463454;88;22036;-81
2023/01/25 03:15:22;;;;;;;5.83;4.17;;;;;;;-0.47;97.63;101937.02;1464281;88;21337;-81
2023/01/25 03:17:48;;;;;;;6.87;4.00;;;;;;;-0.47;97.49;101938.33;1466799;88;23188;-81
2023/01/25 03:20:15;;;;;;;5.23;3.27;;;;;;;-0.50;97.53;101936.25;1455938;89;23122;-80
2023/01/25 03:22:42;;;;;;;6.40;4.00;;;;;;;-0.51;97.31;101931.50;1472848;88;23082;-80
2023/01/25 03:25:08;;;;;;;6.30;3.83;;;;;;;-0.53;97.38;101930.69;1457312;89;21381;-80
2023/01/25 03:27:34;;;;;;;6.37;3.73;;;;;;;-0.51;97.14;101926.30;1459665;88;21523;-81
2023/01/25 03:30:01;;;;;;;5.33;3.12;;;;;;;-0.49;97.15;101927.55;1466992;88;22095;-80
2023/01/25 03:32:27;;;;;;;6.15;3.25;;;;;;;-0.53;97.03;101918.98;1467167;88;21446;-81
2023/01/25 03:34:53;;;;;;;5.30;3.20;;;;;;;-0.58;97.24;101918.69;1447767;89;21433;-81
2023/01/25 03:37:19;;;;;;;4.10;3.08;;;;;;;-0.58;97.20;101916.94;1459275;88;21847;-81
2023/01/25 03:39:46;;;;;;;4.60;3.02;;;;;;;-0.61;97.23;101916.17;1469837;89;22372;-81
2023/01/25 03:42:12;;;;;;;5.47;3.42;;;;;;;-0.58;97.25;101919.99;1458669;89;21345;-81
2023/01/25 03:44:38;;;;;;;4.53;2.98;;;;;;;-0.60;97.07;101914.84;1460809;88;21388;-81
2023/01/25 03:47:04;;;;;;;3.85;2.75;;;;;;;-0.60;97.02;101912.70;1465463;89;22291;-81
2023/01/25 03:49:30;;;;;;;2.70;2.12;;;;;;;-0.62;96.95;101919.67;1465285;88;21316;-82
2023/01/25 03:51:57;;;;;;;3.20;2.37;;;;;;;-0.62;96.98;101919.67;1473720;89;21433;-82
2023/01/25 03:54:24;;;;;;;3.67;2.30;;;;;;;-0.63;97.04;101916.23;1467716;89;22286;-82
2023/01/25 03:56:50;;;;;;;3.83;2.67;;;;;;;-0.63;97.06;101916.23;1460090;89;21725;-81
2023/01/25 03:59:16;;;;;;;4.83;2.92;;;;;;;-0.62;97.07;101921.83;1468462;89;21396;-82
2023/01/25 04:01:42;;;;;;;4.55;2.35;;;;;;;-0.64;97.08;101922.30;1472604;89;21359;-81
2023/01/25 04:04:08;;;;;;;4.65;3.00;;;;;;;-0.64;96.92;101918.40;1462089;89;21323;-80
2023/01/25 04:06:34;;;;;;;3.62;2.35;;;;;;;-0.68;97.12;101918.09;1467576;89;21581;-83
2023/01/25 04:09:01;;;;;;;3.45;2.40;;;;;;;-0.69;97.12;101912.48;1471682;88;21987;-82
2023/01/25 04:11:27;;;;;;;6.08;2.58;;;;;;;-0.65;96.96;101910.66;1469612;88;21412;-81
2023/01/25 04:13:54;;;;;;;4.10;2.00;;;;;;;-0.73;97.23;101909.09;1466393;88;21478;-79
2023/01/25 04:16:20;;;;;;;4.00;2.40;;;;;;;-0.67;97.02;101916.34;1468604;87;21323;-83
2023/01/25 04:18:46;;;;;;;3.60;2.47;;;;;;;-0.68;96.94;101914.19;1468799;88;21470;-83
2023/01/25 04:21:12;;;;;;;4.70;2.40;;;;;;;-0.68;96.92;101915.48;1464859;88;21396;-82
2023/01/25 04:23:38;;;;;;;4.70;2.62;;;;;;;-0.67;96.82;101915.03;1464574;89;22306;-80
2023/01/25 04:26:09;;;;;;;4.90;2.92;;;;;;;-0.70;96.93;101912.91;1470265;89;21522;-79
2023/01/25 04:28:35;;;;;;;3.72;2.45;;;;;;;-0.70;96.87;101912.06;1472294;88;22350;-80
2023/01/25 04:31:02;;;;;;;4.85;2.72;;;;;;;-0.69;96.85;101911.19;1475592;88;21301;-80
2023/01/25 04:33:29;;;;;;;3.60;2.22;;;;;;;-0.72;96.87;101912.54;1456874;88;21469;-80
2023/01/25 04:35:55;;;;;;;5.60;2.80;;;;;;;-0.71;97.01;101910.36;1473692;88;21352;-80
2023/01/25 04:38:22;;;;;;;4.80;2.58;;;;;;;-0.74;97.03;101915.64;1467770;88;22262;-80
2023/01/25 04:40:49;;;;;;;3.77;2.45;;;;;;;-0.75;96.94;101916.52;1470271;88;21366;-79
2023/01/25 04:43:17;;;;;;;2.92;2.33;;;;;;;-0.77;97.08;101915.27;1453299;89;21352;-78
2023/01/25 04:45:44;;;;;;;4.08;2.77;;;;;;;-0.79;97.24;101920.10;1468944;89;21315;-79
2023/01/25 04:48:12;;;;;;;4.37;3.27;;;;;;;-0.78;97.38;101926.55;1466277;88;21410;-79
2023/01/25 04:50:40;;;;;;;3.80;2.42;;;;;;;-0.80;97.54;101923.16;1464692;89;22239;-79
2023/01/25 04:53:08;;;;;;;4.42;2.85;;;;;;;-0.78;97.32;101924.39;1474848;88;21565;-78
2023/01/25 04:55:34;;;;;;;4.53;2.62;;;;;;;-0.79;97.48;101922.70;1473134;88;22314;-79
2023/01/25 04:58:02;;;;;;;3.90;2.60;;;;;;;-0.78;97.39;101928.30;1470705;88;21499;-79
2023/01/25 05:00:29;;;;;;;3.40;2.47;;;;;;;-0.83;97.53;101924.53;1462228;88;21360;-80
2023/01/25 05:02:55;;;;;;;3.60;2.62;;;;;;;-0.78;97.24;101922.64;1471040;88;21366;-79
2023/01/25 05:05:21;;;;;;;3.65;2.58;;;;;;;-0.83;97.44;101919.78;1446480;89;21544;-80
2023/01/25 05:07:48;;;;;;;5.80;2.77;;;;;;;-0.79;97.29;101916.20;1470589;89;21470;-80
2023/01/25 05:10:14;;;;;;;5.23;2.83;;;;;;;-0.85;97.32;101918.95;1466850;89;22380;-79
2023/01/25 05:12:40;;;;;;;5.37;3.27;;;;;;;-0.83;97.37;101919.33;1472988;88;21825;-79
2023/01/25 05:15:08;;;;;;;5.83;3.20;;;;;;;-0.84;97.35;101923.25;1474166;89;22320;-79
2023/01/25 05:17:34;;;;;;;4.87;3.60;;;;;;;-0.83;96.94;101918.03;1463006;89;21455;-79
2023/01/25 05:20:00;;;;;;;6.70;3.50;;;;;;;-0.82;97.08;101918.42;1465589;88;21359;-80
2023/01/25 05:22:27;;;;;;;4.33;2.40;;;;;;;-0.81;97.11;101923.17;1469852;88;21588;-79
2023/01/25 05:24:53;;;;;;;3.12;2.22;;;;;;;-0.87;97.10;101919.43;1467969;88;21382;-80
2023/01/25 05:27:20;;;;;;;3.75;2.47;;;;;;;-0.85;97.17;101922.86;1467015;89;22585;-80
2023/01/25 05:29:47;;;;;;;4.33;2.70;;;;;;;-0.85;97.12;101922.86;1464076;87;21322;-81
2023/01/25 05:32:21;;;;;;;4.22;3.22;;;;;;;-0.83;96.90;101924.98;1475382;88;21403;-80
2023/01/25 05:34:47;;;;;;;3.90;3.08;;;;;;;-0.80;96.96;101927.50;1463596;89;21263;-80
2023/01/25 05:37:18;;;;;;;3.35;2.67;;;;;;;-0.84;96.95;101921.95;1470136;88;21599;-79
2023/01/25 05:39:44;;;;;;;3.45;2.30;;;;;;;-0.84;96.89;101924.10;1464755;88;21404;-80
2023/01/25 05:42:15;;;;;;;3.77;2.58;;;;;;;-0.81;96.73;101925.77;1458893;89;21448;-80
2023/01/25 05:44:41;;;;;;;4.37;2.60;;;;;;;-0.83;96.82;101928.88;1471915;89;21664;-80
2023/01/25 05:47:14;;;;;;;3.17;2.67;;;;;;;-0.84;96.70;101936.25;1464924;88;21433;-79
2023/01/25 05:49:40;;;;;;;4.50;2.98;;;;;;;-0.88;96.95;101939.83;1474692;88;21434;-79
2023/01/25 05:52:08;;;;;;;7.87;2.20;;;;;;;-0.87;96.87;101941.53;1471250;88;21594;-82
2023/01/25 05:54:35;;;;;;;4.62;2.27;;;;;;;-0.91;96.87;101944.20;1459448;88;21932;-80
2023/01/25 05:57:01;;;;;;;4.45;2.77;;;;;;;-0.89;96.94;101947.20;1460522;88;21530;-82
2023/01/25 05:59:27;;;;;;;4.10;2.67;;;;;;;-0.86;96.62;101948.42;1461372;89;21359;-82
2023/01/25 06:01:54;;;;;;;7.10;3.30;;;;;;;-0.88;96.89;101952.83;1461443;89;21263;-80
2023/01/25 06:04:20;;;;;;;3.72;2.60;;;;;;;-0.86;96.83;101948.42;1457872;89;22045;-84
2023/01/25 06:06:46;;;;;;;4.33;2.47;;;;;;;-0.85;96.78;101944.95;1468449;88;21381;-81
2023/01/25 06:09:13;;;;;;;4.72;2.65;;;;;;;-0.87;96.70;101957.12;1472280;88;22643;-80
2023/01/25 06:11:44;;;;;;;6.40;3.90;;;;;;;-0.83;96.70;101958.78;1468927;88;21330;-80
2023/01/25 06:14:11;;;;;;;4.10;2.62;;;;;;;-0.85;96.48;101956.20;1468909;89;21397;-81
2023/01/25 06:16:40;;;;;;;6.37;3.17;;;;;;;-0.83;96.33;101953.58;1470234;88;22189;-82
2023/01/25 06:19:07;;;;;;;6.20;3.20;;;;;;;-0.81;96.35;101963.47;1467053;88;21391;-82
2023/01/25 06:21:37;;;;;;;5.08;3.37;;;;;;;-0.81;96.13;101958.27;1465373;88;21566;-80
2023/01/25 06:24:04;;;;;;;6.22;3.55;;;;;;;-0.82;96.23;101955.27;1461210;88;21493;-80
2023/01/25 06:26:31;;;;;;;5.80;3.35;;;;;;;-0.83;96.22;101959.63;1468100;88;22247;-79
2023/01/25 06:28:57;;;;;;;4.60;3.15;;;;;;;-0.81;96.07;101966.07;1465041;89;21389;-79
2023/01/25 06:31:24;;;;;;;6.40;3.05;;;;;;;-0.83;96.14;101961.38;1463952;89;21323;-88
2023/01/25 06:37:58;;;;;;;5.92;3.20;;;;;;;-0.76;95.83;101964.22;1466795;89;21501;-85
2023/01/25 06:40:26;;;;;;;7.47;3.87;;;;;;;-0.76;95.71;101959.02;1470234;88;21603;-89
2023/01/25 06:42:55;;;;;;;7.80;3.87;;;;;;;-0.70;95.55;101956.27;1470599;88;21892;-87
2023/01/25 06:45:21;;;;;;;6.25;3.33;;;;;;;-0.66;95.42;101957.91;1463192;88;21426;-90
2023/01/25 06:47:50;;;;;;;6.03;3.15;;;;;;;-0.62;95.19;101962.13;1462275;89;21470;-88
2023/01/25 06:50:23;;;;;;;5.00;2.85;;;;;;;-0.56;94.87;101963.27;1464244;89;21887;-88
2023/01/25 06:52:53;;;;;;;7.53;4.47;;;;;;;-0.52;94.37;101964.05;1467957;89;21441;-86
2023/01/25 06:55:21;;;;;;;8.78;4.53;;;;;;;-0.50;94.28;101967.47;1449551;89;22072;-88
2023/01/25 06:57:47;;;;;;;11.15;5.80;;;;;;;-0.46;94.08;101962.16;1470426;88;21426;-87
2023/01/25 07:04:53;;;;;;;10.72;4.20;;;;;;;-0.41;93.72;101972.43;1460990;89;21611;-88
2023/01/25 07:07:20;;;;;;;7.03;4.03;;;;;;;-0.38;93.56;101962.39;1463613;89;21448;-92
2023/01/25 07:09:46;;;;;;;7.30;4.97;;;;;;;-0.31;93.11;101963.95;1466934;89;22306;-87
2023/01/25 07:12:12;;;;;;;6.77;3.43;;;;;;;-0.27;92.92;101956.47;1461475;89;23609;-90
2023/01/25 07:14:38;;;;;;;6.93;3.73;;;;;;;-0.20;92.70;101950.22;1472763;89;21579;-93
2023/01/25 07:17:05;;;;;;;6.37;3.10;;;;;;;-0.22;92.22;101949.39;1450858;89;21739;-92
2023/01/25 07:19:31;;;;;;;4.60;2.67;;;;;;;-0.11;92.08;101949.96;1465002;89;21535;-91
2023/01/25 07:21:57;;;;;;;6.47;3.50;;;;;;;-0.03;91.83;101948.00;1464738;89;21605;-94
2023/01/25 07:24:28;;;;;;;5.70;3.27;;;;;;;-0.01;91.02;101944.89;1468624;88;22651;-92
2023/01/25 07:26:54;;;;;;;3.75;3.08;;;;;;;0.07;91.16;101943.84;1470372;88;22199;-90
2023/01/25 07:29:21;;;;;;;4.20;2.50;;;;;;;0.14;90.70;101940.99;1466011;89;21418;-87
2023/01/25 07:31:47;;;;;;;4.40;2.90;;;;;;;0.25;90.42;101949.81;1463738;89;22009;-91
2023/01/25 07:34:14;;;;;;;4.10;2.80;;;;;;;0.28;89.66;101938.00;1469454;88;21735;-89
2023/01/25 07:36:42;;;;;;;3.67;2.53;;;;;;;0.39;89.99;101938.54;1470262;89;22550;-93
2023/01/25 07:39:10;;;;;;;6.30;2.70;;;;;;;0.47;89.32;101942.23;1464416;89;22591;-89
2023/01/25 07:41:37;;;;;;;6.13;3.57;;;;;;;0.52;92.11;101942.07;1478304;88;21857;-92
2023/01/25 07:44:03;;;;;;;4.80;3.10;;;;;;;0.75;95.57;101943.55;1468325;88;22477;-89
2023/01/25 07:46:30;;;;;;;3.77;2.33;;;;;;;0.96;92.95;101942.02;1468628;87;21661;-90
2023/01/25 07:48:57;;;;;;;5.20;3.20;;;;;;;1.09;92.28;101944.64;1471322;89;21862;-83
2023/01/25 07:51:29;;;;;;;4.57;3.20;;;;;;;1.26;91.82;101944.52;1450785;89;21542;-83
2023/01/25 07:53:58;;;;;;;6.20;2.57;;;;;;;1.34;90.15;101936.84;1471747;89;21409;-83
2023/01/25 07:56:29;;;;;;;6.47;2.20;;;;;;;1.43;87.58;101942.20;1470559;88;21757;-81
2023/01/25 07:58:57;;;;;;;4.37;3.02;;;;;;;1.40;85.30;101941.45;1465361;89;21586;-82
2023/01/25 08:01:26;;;;;;;5.00;3.53;;;;;;;1.49;86.89;101939.84;1389744;88;21219;-82
2023/01/25 08:03:55;;;;;;;5.63;2.97;;;;;;;1.59;84.26;101947.77;1388448;87;21536;-80
2023/01/25 08:06:30;;;;;;;15.67;3.73;;;;;;;1.60;83.35;101944.69;1432045;88;21500;-87
2023/01/25 08:08:58;;;;;;;4.33;2.67;;;;;;;1.69;83.56;101955.66;1472351;88;21773;-90
2023/01/25 08:11:28;;;;;;;4.60;3.17;;;;;;;1.86;84.04;101946.39;1464724;88;22648;-92
2023/01/25 08:13:55;;;;;;;5.10;3.30;;;;;;;1.96;82.95;101945.17;1472788;88;21552;-91
2023/01/25 08:16:24;;;;;;;8.00;3.20;;;;;;;2.03;82.00;101940.95;1466629;88;22408;-89
2023/01/25 08:18:54;;;;;;;6.93;3.90;;;;;;;1.96;81.44;101942.56;1470316;88;21811;-91
2023/01/25 08:21:28;;;;;;;4.97;2.97;;;;;;;1.97;82.33;101940.34;1465146;89;22577;-89
2023/01/25 08:23:53;;;;;;;6.00;3.33;;;;;;;1.42;80.72;101943.11;1474786;88;21698;-87
2023/01/25 08:26:20;;;;;;;5.47;3.23;;;;;;;1.42;80.72;101943.11;1463896;88;22754;-90
2023/01/25 08:28:46;;;;;;;5.73;3.37;;;;;;;1.38;81.97;101939.34;1464908;88;21796;-88
2023/01/25 08:31:21;;;;;;;11.23;4.27;;;;;;;1.30;82.79;101936.55;1455961;89;21823;-89
2023/01/25 08:33:45;;;;;;;4.13;3.27;;;;;;;1.28;83.02;101931.83;1470533;88;21744;-87
2023/01/25 08:36:14;;;;;;;5.13;3.70;;;;;;;1.24;83.49;101932.85;1468327;89;21918;-85
2023/01/25 08:38:41;;;;;;;8.30;5.00;;;;;;;1.03;83.72;101942.20;1464957;88;21670;-86
2023/01/25 08:41:18;;;;;;;11.30;6.13;;;;;;;1.04;84.22;101943.08;1472807;89;21587;-86
2023/01/25 08:43:45;;;;;;;9.67;5.57;;;;;;;1.02;84.71;101935.30;1472172;88;21555;-88
2023/01/25 08:46:14;;;;;;;7.73;4.77;;;;;;;1.06;85.09;101936.04;1473119;89;21526;-88
2023/01/25 08:48:40;;;;;;;9.13;4.63;;;;;;;1.12;85.33;101925.41;1473448;88;21675;-89
2023/01/25 08:51:16;;;;;;;6.60;3.77;;;;;;;1.20;85.41;101929.08;1468283;89;21638;-89
2023/01/25 08:53:43;;;;;;;6.03;3.93;;;;;;;1.26;85.80;101935.39;1472940;88;21629;-92
2023/01/25 08:56:13;;;;;;;7.53;4.70;;;;;;;1.33;84.96;101935.14;1451712;89;21659;-91
2023/01/25 08:58:46;;;;;;;6.00;4.00;;;;;;;1.39;84.42;101931.94;1464905;88;21672;-92
2023/01/25 09:01:15;;;;;;;8.83;4.93;;;;;;;1.44;84.83;101927.39;1468278;88;22642;-93
2023/01/25 09:03:45;;;;;;;9.57;4.70;;;;;;;1.55;85.04;101923.96;1465219;88;22440;-93
2023/01/25 09:06:12;;;;;;;32.83;15.17;;;;;;;1.58;84.29;101932.98;1470859;89;21533;-93
2023/01/25 09:08:39;;;;;;;15.20;8.37;;;;;;;1.64;84.61;101923.67;1465963;88;22467;-92
2023/01/25 09:11:10;;;;;;;113.90;57.07;;;;;;;1.66;83.04;101924.44;1469131;89;21734;-92
2023/01/25 09:13:36;;;;;;;182.60;81.47;;;;;;;1.72;82.99;101932.05;1468981;88;22527;-92
2023/01/25 09:16:07;;;;;;;169.20;75.23;;;;;;;1.75;83.00;101928.03;1445232;89;21433;-91
2023/01/25 09:18:35;;;;;;;180.43;85.53;;;;;;;1.75;82.65;101926.72;1455521;89;21838;-91
2023/01/25 09:21:11;;;;;;;61.87;30.33;;;;;;;1.77;83.06;101930.14;1450708;89;21627;-92
2023/01/25 09:23:38;;;;;;;340.87;134.10;;;;;;;1.77;83.06;101930.14;1463909;89;21640;-92
2023/01/25 09:26:05;;;;;;;365.30;160.37;;;;;;;1.78;83.04;101925.34;1448433;89;21810;-92
2023/01/25 09:28:32;;;;;;;65.77;40.90;;;;;;;1.77;82.89;101926.22;1463991;88;23055;-92
2023/01/25 09:31:03;;;;;;;45.43;31.73;;;;;;;1.83;83.10;101926.92;1469928;88;21677;-92
2023/01/25 09:33:33;;;;;;;18.07;10.97;;;;;;;1.91;83.18;101928.81;1475572;88;21659;-92
2023/01/25 09:36:00;;;;;;;19.02;11.53;;;;;;;1.95;82.89;101923.86;1470942;88;21883;-92
2023/01/25 09:38:27;;;;;;;16.37;9.47;;;;;;;1.94;82.22;101928.70;1468536;88;22270;-92
2023/01/25 09:41:23;;;;;;;89.07;46.40;;;;;;;1.87;82.31;101916.75;1467010;88;21655;-91
2023/01/25 09:44:29;;;;;;;21.67;14.30;;;;;;;1.87;82.31;101916.75;1482898;87;21748;-92
2023/01/25 09:47:03;;;;;;;21.40;10.63;;;;;;;1.91;82.72;101914.45;1470883;89;21846;-89
2023/01/25 09:50:07;;;;;;;21.03;11.00;;;;;;;1.87;82.51;101907.61;1452392;89;21954;-93
2023/01/25 09:53:15;;;;;;;21.77;12.60;;;;;;;1.79;82.51;101904.00;1458700;89;22845;-92
2023/01/25 09:55:43;;;;;;;17.40;9.53;;;;;;;1.82;82.56;101895.20;1469422;88;22572;-90
2023/01/25 09:58:26;;;;;;;30.93;19.03;;;;;;;1.78;82.46;101894.02;1468258;88;21638;-92
2023/01/25 10:01:08;;;;;;;12.80;8.53;;;;;;;1.86;82.75;101894.17;1468252;88;21727;-93
2023/01/25 10:03:46;;;;;;;14.00;8.07;;;;;;;1.82;82.11;101878.23;1461298;88;21996;-92
2023/01/25 10:06:15;;;;;;;14.27;6.33;;;;;;;1.82;82.09;101876.47;1473552;88;21708;-91
2023/01/25 10:09:02;;;;;;;19.80;11.63;;;;;;;1.80;81.56;101871.30;1472532;89;21723;-91
2023/01/25 10:11:31;;;;;;;27.70;14.43;;;;;;;1.86;82.22;101870.67;1461187;89;21845;-92
2023/01/25 10:13:59;;;;;;;88.30;41.20;;;;;;;1.86;82.33;101870.67;1465277;88;21521;-91
2023/01/25 10:16:49;;;;;;;45.43;23.13;;;;;;;1.83;82.18;101867.72;1475117;89;22861;-92
2023/01/25 10:19:30;;;;;;;167.90;73.93;;;;;;;1.90;82.08;101867.03;1465132;88;23086;-91
2023/01/25 10:22:17;;;;;;;40.85;18.85;;;;;;;1.95;82.15;101865.95;1462546;88;21810;-93
2023/01/25 10:25:25;;;;;;;18.13;9.37;;;;;;;1.99;82.08;101862.80;1468432;88;21977;-92
2023/01/25 10:28:21;;;;;;;46.50;23.37;;;;;;;2.01;81.56;101854.42;1468150;89;22637;-91
2023/01/25 10:31:08;;;;;;;135.27;59.60;;;;;;;2.07;81.56;101851.58;1474191;89;21753;-88
2023/01/25 10:33:38;;;;;;;43.20;22.53;;;;;;;2.07;81.50;101845.05;1410466;89;22597;-90
2023/01/25 10:36:06;;;;;;;62.13;28.15;;;;;;;2.11;81.81;101850.58;1468082;89;21603;-90
2023/01/25 10:38:37;;;;;;;59.23;29.30;;;;;;;2.08;82.01;101837.63;1467349;87;22388;-89
2023/01/25 10:41:12;;;;;;;72.70;35.40;;;;;;;2.08;82.01;101837.63;1465030;89;23088;-86
2023/01/25 10:43:38;;;;;;;18.87;9.83;;;;;;;2.07;81.13;101845.05;1465116;88;22681;-89
2023/01/25 10:46:22;;;;;;;37.83;21.63;;;;;;;2.01;80.50;101842.67;1465100;88;22055;-88
2023/01/25 10:48:49;;;;;;;83.17;40.27;;;;;;;2.05;81.50;101833.84;1469092;88;21858;-86
2023/01/25 10:51:30;;;;;;;68.17;30.53;;;;;;;2.10;82.11;101832.34;1469473;88;22802;-88
2023/01/25 10:54:05;;;;;;;23.20;12.33;;;;;;;2.12;80.81;101822.23;1469993;88;22773;-90
2023/01/25 10:56:36;;;;;;;106.87;45.30;;;;;;;2.12;80.81;101822.23;1467457;89;21869;-89
2023/01/25 10:59:23;;;;;;;77.63;34.97;;;;;;;2.14;81.53;101820.88;1375323;89;21978;-89
2023/01/25 11:01:50;;;;;;;49.13;24.17;;;;;;;2.11;81.09;101821.00;1537189;88;21820;-88
2023/01/25 11:04:28;;;;;;;27.07;14.93;;;;;;;2.12;81.34;101810.48;1467407;89;21749;-87
2023/01/25 11:06:54;;;;;;;71.73;36.23;;;;;;;2.14;81.35;101819.11;1465895;87;22355;-87
2023/01/25 11:09:32;;;;;;;60.63;30.47;;;;;;;2.14;81.40;101815.66;1466251;88;21838;-88
2023/01/25 11:12:19;;;;;;;60.30;29.77;;;;;;;2.08;80.36;101808.06;1464291;89;22039;-90
2023/01/25 11:14:49;;;;;;;50.03;25.87;;;;;;;2.15;81.44;101809.51;1468667;88;21720;-90
2023/01/25 11:17:28;;;;;;;44.70;26.13;;;;;;;2.17;81.51;101805.93;1467639;88;21862;-90
2023/01/25 11:20:19;;;;;;;19.03;12.20;;;;;;;2.21;81.90;101803.58;1467736;86;21897;-89
2023/01/25 11:22:56;;;;;;;18.85;12.60;;;;;;;2.25;82.36;101798.65;1467250;89;22672;-90
2023/01/25 11:25:32;;;;;;;22.93;7.97;;;;;;;2.32;81.42;101791.87;1469945;89;21359;-87
2023/01/25 11:28:21;;;;;;;13.03;8.70;;;;;;;2.32;81.17;101787.48;1453656;89;22078;-88
2023/01/25 11:30:51;;;;;;;41.37;23.27;;;;;;;2.32;81.17;101787.48;1470758;89;22714;-91
2023/01/25 11:33:20;;;;;;;21.43;13.30;;;;;;;2.32;80.90;101789.25;1467953;88;22874;-89
2023/01/25 11:35:58;;;;;;;28.47;17.73;;;;;;;2.30;80.79;101784.54;1388245;89;21912;-86
2023/01/25 11:38:25;;;;;;;16.27;10.80;;;;;;;2.27;81.39;101761.99;1551590;88;21659;-92
2023/01/25 11:41:14;;;;;;;21.53;13.47;;;;;;;2.27;81.39;101761.99;1392270;88;21883;-90
2023/01/25 11:44:12;;;;;;;18.37;12.40;;;;;;;2.29;81.46;101754.95;1544646;88;22577;-86
2023/01/25 11:46:57;;;;;;;14.70;9.70;;;;;;;2.24;80.47;101739.48;1551856;88;21603;-90